AV - LB | Pilotos de la V.A




 METAR AND TAF INFORMATION
METAR FOR EVRA
ADDS - METARS form results

(1320 UTC 17 January 2021)
Data provider http://aviationweather.gov/metar/data/
 
METAR text: EVRA 171320Z 19002KT 9999 -SN SCT013 M14/M16 Q1022 R18/490395 NOSIG
Conditions at: EVRA (RIGA AIRPORT , LV) observed 1320 UTC 17 January 2021
Temperature: -14.0°C ( 7°F)
Dewpoint: -16.0°C ( 3°F) [RH = 85%]
Pressure (altimeter): 30.18 inches Hg (1022.0 mb)
Winds: from the S (190 degrees) at 2 MPH (2 knots; 1.0 m/s)
Visibility: 6 or more miles (10+ km)
Ceiling: at least 12,000 feet AGL
Clouds: scattered clouds at 1300 feet AGL
Weather: -SN  (light snow)

METAR text: EVRA 171250Z VRB02KT 8000 -SN BKN015 M14/M16 Q1022 R18/490395 NOSIG
Conditions at: EVRA (RIGA AIRPORT , LV) observed 1250 UTC 17 January 2021
Temperature: -14.0°C ( 7°F)
Dewpoint: -16.0°C ( 3°F) [RH = 85%]
Pressure (altimeter): 30.18 inches Hg (1022.0 mb)
Winds: variable direction winds at 2 MPH (2 knots; 1.0 m/s)
Visibility: 5 miles ( 8 km)
Ceiling: 1500 feet AGL
Clouds: broken clouds at 1500 feet AGL
Weather: -SN  (light snow)

Forecast for: EVRA (RIGA AIRPORT , LV)
Text: TAF EVRA 171100Z 1712/1812 VRB02KT 9999 SCT020
Forecast period: 1200 UTC 17 January 2021 to 1200 UTC 18 January 2021
Forecast type: FROM: standard forecast or significant change
Winds: variable direction winds at 2 MPH (2 knots; 1.0 m/s)
Visibility: 6 or more miles (10+ km)
Ceiling: at least 12,000 feet AGL
Clouds: scattered clouds at 2000 feet AGL
Weather: no significant weather forecast for this period
Text: TEMPO 1712/1718 BKN010
Forecast period: 1200 to 1800 UTC 17 January 2021
Forecast type: TEMPORARY: The following changes expected for less than half the time period
Visibility: missing
Ceiling: 1000 feet AGL
Clouds: broken clouds at 1000 feet AGL
Weather: no significant weather forecast for this period

 AIRPORT MAP

 RUNWAY INFORMATION
Runway 18 Runway length 10499 ft Runway width 148 ft
Runway elevation 31 ft Runway displaced threshold 0 ft Runway heading 185
Runway 36 Runway length 10499 ft Runway width 148 ft
Runway elevation 34 ft Runway displaced threshold 0 ft Runway heading 5

 AIRPORT FREQUENCIES
Type APP Name APP Frequency 129.925 MHZ
Type ATIS Name ATIS Frequency 121.2 MHZ
Type GND Name Riga Groun Frequency 118.8 MHZ
Type MISC Name Riga Apron Frequency 131.6 MHZ
Type TWR Name TWR Frequency 118.1 MHZ

 AIRPORT NEAR NAVIGATION AIDS
Type VOR-DME Name Riga Frequency 112050 KHZ
Type VOR-DME Name Riga Frequency 113700 KHZ